createdAt,value
2022-10-06T00:01:17.385Z,14.20
2022-10-06T00:03:44.683Z,14.05
2022-10-06T00:06:17.430Z,14.03
2022-10-06T00:08:44.829Z,13.93
2022-10-06T00:11:13.363Z,14.08
2022-10-06T00:13:41.073Z,14.01
2022-10-06T00:16:13.475Z,13.98
2022-10-06T00:18:40.280Z,13.98
2022-10-06T00:21:07.013Z,13.99
2022-10-06T00:23:33.935Z,13.97
2022-10-06T00:26:00.657Z,14.20
2022-10-06T00:28:28.276Z,14.25
2022-10-06T00:30:56.470Z,14.20
2022-10-06T00:33:24.145Z,14.07
2022-10-06T00:36:03.117Z,14.01
2022-10-06T00:38:30.269Z,14.02
2022-10-06T00:40:57.286Z,14.00
2022-10-06T00:44:02.838Z,14.02
2022-10-06T00:46:47.297Z,13.91
2022-10-06T00:49:16.733Z,13.69
2022-10-06T00:51:51.647Z,13.77
2022-10-06T00:54:19.965Z,13.78
2022-10-06T00:56:49.607Z,13.61
2022-10-06T00:59:18.960Z,13.44
2022-10-06T01:02:00.974Z,13.61
2022-10-06T01:04:35.334Z,13.48
2022-10-06T01:07:03.322Z,13.66
2022-10-06T01:09:31.676Z,13.67
2022-10-06T01:12:04.232Z,13.76
2022-10-06T01:14:32.202Z,13.79
2022-10-06T01:17:07.814Z,13.64
2022-10-06T01:20:13.243Z,13.64
2022-10-06T01:22:54.701Z,13.52
2022-10-06T01:25:22.599Z,13.39
2022-10-06T01:27:53.852Z,13.42
2022-10-06T01:30:40.685Z,13.38
2022-10-06T01:33:10.602Z,13.38
2022-10-06T01:35:38.037Z,13.34
2022-10-06T01:38:06.794Z,13.36
2022-10-06T01:40:35.286Z,13.38
2022-10-06T01:43:05.033Z,13.27
2022-10-06T01:45:32.082Z,13.25
2022-10-06T01:47:59.120Z,13.27
2022-10-06T01:50:28.884Z,13.31
2022-10-06T01:52:57.441Z,13.17
2022-10-06T01:55:25.112Z,13.12
2022-10-06T01:57:52.471Z,13.04
2022-10-06T02:00:19.794Z,13.08
2022-10-06T02:02:47.746Z,12.95
2022-10-06T02:05:15.650Z,12.89
2022-10-06T02:07:48.560Z,12.89
2022-10-06T02:10:16.883Z,12.82
2022-10-06T02:12:44.712Z,12.86
2022-10-06T02:15:11.454Z,12.88
2022-10-06T02:17:38.637Z,12.74
2022-10-06T02:20:06.408Z,12.64
2022-10-06T02:22:37.706Z,12.63
2022-10-06T02:25:05.030Z,12.72
2022-10-06T02:27:31.805Z,12.77
2022-10-06T02:30:01.834Z,12.79
2022-10-06T02:32:37.027Z,12.65
2022-10-06T02:35:05.008Z,12.63
2022-10-06T02:37:32.212Z,12.61
2022-10-06T02:40:06.723Z,12.55
2022-10-06T02:42:35.684Z,12.42
2022-10-06T02:45:02.433Z,12.42
2022-10-06T02:47:29.616Z,12.37
2022-10-06T02:49:56.461Z,12.32
2022-10-06T02:52:23.528Z,12.24
2022-10-06T02:54:51.112Z,12.14
2022-10-06T02:57:17.834Z,12.26
2022-10-06T02:59:45.387Z,12.15
2022-10-06T03:02:12.266Z,12.08
2022-10-06T03:04:39.174Z,12.11
2022-10-06T03:07:07.139Z,12.05
2022-10-06T03:09:37.782Z,11.89
2022-10-06T03:12:05.154Z,11.85
2022-10-06T03:14:43.057Z,11.80
2022-10-06T03:17:10.094Z,11.83
2022-10-06T03:19:47.028Z,11.88
2022-10-06T03:22:14.307Z,11.87
2022-10-06T03:24:46.687Z,11.81
2022-10-06T03:27:13.460Z,11.74
2022-10-06T03:29:40.412Z,11.78
2022-10-06T03:32:07.890Z,11.81
2022-10-06T03:34:35.259Z,11.80
2022-10-06T03:37:04.493Z,11.84
2022-10-06T03:39:31.137Z,11.82
2022-10-06T03:41:58.435Z,11.82
2022-10-06T03:44:25.970Z,11.74
2022-10-06T03:46:52.811Z,11.67
2022-10-06T03:49:20.008Z,11.64
2022-10-06T03:51:47.109Z,11.69
2022-10-06T03:54:22.441Z,11.70
2022-10-06T03:56:51.281Z,11.63
2022-10-06T03:59:19.613Z,11.57
2022-10-06T04:01:53.327Z,11.55
2022-10-06T04:04:26.072Z,11.50
2022-10-06T04:07:04.393Z,11.47
2022-10-06T04:09:31.585Z,11.44
2022-10-06T04:12:01.047Z,11.45
2022-10-06T04:14:28.608Z,11.33
2022-10-06T04:16:57.641Z,11.26
2022-10-06T04:19:29.894Z,11.40
2022-10-06T04:21:58.100Z,11.32
2022-10-06T04:24:25.954Z,11.42
2022-10-06T04:26:53.343Z,11.28
2022-10-06T04:29:21.745Z,11.23
2022-10-06T04:31:53.383Z,11.21
2022-10-06T04:34:33.452Z,11.28
2022-10-06T04:37:00.363Z,11.21
2022-10-06T04:39:27.497Z,11.32
2022-10-06T04:41:54.702Z,11.33
2022-10-06T04:44:25.143Z,11.37
2022-10-06T04:46:54.024Z,11.21
2022-10-06T04:49:21.497Z,11.19
2022-10-06T04:51:51.911Z,11.10
2022-10-06T04:54:19.515Z,11.05
2022-10-06T04:56:49.946Z,11.14
2022-10-06T04:59:19.285Z,11.09
2022-10-06T05:01:48.138Z,11.05
2022-10-06T05:04:14.962Z,11.08
2022-10-06T05:06:42.856Z,11.16
2022-10-06T05:09:13.848Z,11.13
2022-10-06T05:11:49.736Z,11.11
2022-10-06T05:14:19.172Z,11.11
2022-10-06T05:16:49.161Z,10.94
2022-10-06T05:19:16.890Z,10.94
2022-10-06T05:21:46.433Z,10.82
2022-10-06T05:24:17.634Z,10.84
2022-10-06T05:26:44.490Z,10.82
2022-10-06T05:29:16.869Z,10.78
2022-10-06T05:31:45.330Z,10.70
2022-10-06T05:34:16.044Z,10.75
2022-10-06T05:36:45.275Z,10.83
2022-10-06T05:39:12.529Z,10.86
2022-10-06T05:41:59.662Z,10.85
2022-10-06T05:44:31.827Z,10.84
2022-10-06T05:47:02.110Z,10.74
2022-10-06T05:49:29.400Z,10.76
2022-10-06T05:51:59.724Z,10.62
2022-10-06T05:54:32.222Z,10.80
2022-10-06T05:57:02.071Z,10.81
2022-10-06T05:59:31.422Z,10.77
2022-10-06T06:01:59.768Z,10.79
2022-10-06T06:04:40.080Z,10.74
2022-10-06T06:07:07.153Z,10.82
2022-10-06T06:09:34.054Z,10.85
2022-10-06T06:12:03.003Z,10.83
2022-10-06T06:15:08.374Z,10.77
2022-10-06T06:17:40.546Z,10.90
2022-10-06T06:20:07.907Z,10.85
2022-10-06T06:22:35.884Z,10.80
2022-10-06T06:25:04.541Z,10.94
2022-10-06T06:27:31.200Z,10.87
2022-10-06T06:29:58.442Z,11.00
2022-10-06T06:32:26.850Z,11.00
2022-10-06T06:34:54.275Z,10.98
2022-10-06T06:37:21.087Z,11.08
2022-10-06T06:39:48.688Z,11.11
2022-10-06T06:42:15.432Z,11.17
2022-10-06T06:44:54.836Z,11.21
2022-10-06T06:47:30.251Z,11.13
2022-10-06T06:50:00.274Z,11.37
2022-10-06T06:52:29.343Z,11.39
2022-10-06T06:54:57.777Z,11.49
2022-10-06T06:57:25.694Z,11.51
2022-10-06T06:59:57.018Z,11.44
2022-10-06T07:02:26.603Z,11.46
2022-10-06T07:04:53.366Z,11.52
2022-10-06T07:07:23.792Z,11.64
2022-10-06T07:09:51.319Z,11.70
2022-10-06T07:12:20.465Z,11.85
2022-10-06T07:15:13.639Z,11.90
2022-10-06T07:18:05.300Z,11.90
2022-10-06T07:20:51.211Z,12.06
2022-10-06T07:23:40.010Z,12.13
2022-10-06T07:26:12.001Z,12.28
2022-10-06T07:28:38.786Z,12.40
2022-10-06T07:31:06.935Z,12.41
2022-10-06T07:33:33.914Z,12.55
2022-10-06T07:36:04.267Z,12.50
2022-10-06T07:38:34.309Z,12.52
2022-10-06T07:43:55.350Z,12.77
2022-10-06T07:46:24.632Z,12.86
2022-10-06T07:49:04.710Z,12.98
2022-10-06T07:51:31.909Z,13.07
2022-10-06T07:54:01.128Z,13.13
2022-10-06T07:56:47.885Z,13.15
2022-10-06T07:59:14.762Z,13.30
2022-10-06T08:01:41.733Z,13.36
2022-10-06T08:04:10.823Z,13.52
2022-10-06T08:06:38.540Z,13.46
2022-10-06T08:09:05.879Z,13.63
2022-10-06T08:11:33.484Z,13.52
2022-10-06T08:14:00.331Z,13.74
2022-10-06T08:16:30.373Z,13.86
2022-10-06T08:18:59.623Z,13.93
2022-10-06T08:21:29.807Z,14.09
2022-10-06T08:23:58.376Z,14.12
2022-10-06T08:26:27.250Z,14.23
2022-10-06T08:29:03.258Z,14.22
2022-10-06T08:31:31.140Z,14.39
2022-10-06T08:33:58.616Z,14.27
2022-10-06T08:36:31.422Z,14.49
2022-10-06T08:38:58.664Z,14.44
2022-10-06T08:41:33.247Z,14.50
2022-10-06T08:44:19.207Z,14.77
2022-10-06T08:47:00.892Z,14.81
2022-10-06T08:49:39.838Z,14.83
2022-10-06T08:52:06.578Z,14.88
2022-10-06T08:54:58.551Z,15.07
2022-10-06T08:57:38.733Z,15.13
2022-10-06T09:00:18.152Z,15.12
2022-10-06T09:02:50.032Z,15.13
2022-10-06T09:05:25.341Z,15.24
2022-10-06T09:08:19.315Z,15.40
2022-10-06T09:11:10.789Z,15.46
2022-10-06T09:13:48.258Z,15.41
2022-10-06T09:16:19.732Z,15.38
2022-10-06T09:19:08.337Z,15.74
2022-10-06T09:21:45.837Z,15.75
2022-10-06T09:24:35.647Z,15.81
2022-10-06T09:27:23.603Z,15.76
2022-10-06T09:29:51.837Z,15.87
2022-10-06T09:32:24.053Z,16.08
2022-10-06T09:35:02.665Z,16.28
2022-10-06T09:37:29.619Z,16.29
2022-10-06T09:39:59.291Z,16.29
2022-10-06T09:42:29.778Z,16.00
2022-10-06T09:45:25.558Z,15.97
2022-10-06T09:47:52.516Z,16.20
2022-10-06T09:50:29.626Z,16.47
2022-10-06T09:53:00.740Z,16.56
2022-10-06T09:55:44.255Z,16.70
2022-10-06T09:58:34.153Z,16.87
2022-10-06T10:01:06.658Z,16.87
2022-10-06T10:03:51.490Z,17.18
2022-10-06T10:06:35.080Z,17.66
2022-10-06T10:09:21.743Z,17.42
2022-10-06T10:12:30.906Z,17.25
2022-10-06T10:15:24.900Z,17.52
2022-10-06T10:17:55.815Z,17.63
2022-10-06T10:20:23.839Z,17.75
2022-10-06T10:22:59.288Z,17.31
2022-10-06T10:25:45.831Z,17.63
2022-10-06T10:28:31.154Z,17.61
2022-10-06T10:30:58.479Z,17.86
2022-10-06T10:33:34.418Z,18.10
2022-10-06T10:36:05.990Z,18.13
2022-10-06T10:38:41.361Z,17.87
2022-10-06T10:41:19.801Z,17.89
2022-10-06T10:43:48.037Z,17.88
2022-10-06T10:46:27.285Z,17.57
2022-10-06T10:48:59.346Z,17.28
2022-10-06T10:51:36.221Z,17.26
2022-10-06T10:54:15.623Z,17.11
2022-10-06T10:56:44.302Z,16.99
2022-10-06T10:59:19.656Z,16.72
2022-10-06T11:01:59.106Z,16.77
2022-10-06T11:04:26.248Z,16.70
2022-10-06T11:07:30.685Z,16.87
2022-10-06T11:10:08.744Z,17.32
2022-10-06T11:13:04.623Z,17.77
2022-10-06T11:16:12.528Z,17.70
2022-10-06T11:19:26.048Z,17.26
2022-10-06T11:22:06.122Z,17.28
2022-10-06T11:24:49.196Z,17.45
2022-10-06T11:27:51.715Z,17.48
2022-10-06T11:30:21.159Z,17.93
2022-10-06T11:33:01.428Z,18.34
2022-10-06T11:35:37.682Z,18.52
2022-10-06T11:38:30.237Z,18.83
2022-10-06T11:41:19.210Z,18.94
2022-10-06T11:44:04.305Z,18.91
2022-10-06T11:46:54.672Z,19.14
2022-10-06T11:49:45.359Z,19.42
2022-10-06T11:52:12.085Z,19.19
2022-10-06T11:54:47.899Z,19.03
2022-10-06T11:57:48.318Z,18.95
2022-10-06T12:00:16.324Z,18.71
2022-10-06T12:02:46.137Z,18.21
2022-10-06T12:05:54.672Z,18.31
2022-10-06T12:08:10.522Z,18.42
2022-10-06T12:10:49.258Z,18.28
2022-10-06T12:19:42.335Z,18.23
2022-10-06T12:22:17.647Z,18.51
2022-10-06T12:25:08.514Z,18.62
2022-10-06T12:28:05.178Z,18.78
2022-10-06T12:31:15.794Z,18.50
2022-10-06T12:33:45.581Z,18.69
2022-10-06T12:36:25.756Z,18.69
2022-10-06T12:39:05.066Z,18.65
2022-10-06T12:42:07.764Z,18.70
2022-10-06T12:44:51.732Z,18.67
2022-10-06T12:47:44.409Z,18.79
2022-10-06T12:50:20.703Z,18.71
2022-10-06T12:53:01.006Z,18.59
2022-10-06T12:55:52.327Z,18.70
2022-10-06T12:58:31.137Z,18.67
2022-10-06T13:01:07.569Z,18.73
2022-10-06T13:03:34.922Z,18.72
2022-10-06T13:06:04.474Z,18.65
2022-10-06T13:08:34.339Z,18.67
2022-10-06T13:11:22.428Z,18.79
2022-10-06T13:13:54.362Z,18.67
2022-10-06T13:16:31.484Z,18.74
2022-10-06T13:19:01.226Z,18.62
2022-10-06T13:21:31.192Z,18.67
2022-10-06T13:23:58.648Z,18.59
2022-10-06T13:26:30.971Z,18.88
2022-10-06T13:29:00.317Z,18.71
2022-10-06T13:31:33.457Z,18.59
2022-10-06T13:34:11.276Z,18.72
2022-10-06T13:36:41.772Z,18.81
2022-10-06T13:39:25.741Z,18.81
2022-10-06T13:42:00.458Z,18.67
2022-10-06T13:44:32.112Z,18.67
2022-10-06T13:47:02.730Z,18.72
2022-10-06T13:49:43.199Z,18.89
2022-10-06T13:52:24.086Z,18.92
2022-10-06T13:54:53.989Z,19.01
2022-10-06T13:57:42.585Z,18.97
2022-10-06T14:00:23.297Z,18.93
2022-10-06T14:02:56.327Z,18.68
2022-10-06T14:05:24.559Z,18.51
2022-10-06T14:07:51.661Z,18.62
2022-10-06T14:10:30.056Z,18.68
2022-10-06T14:13:00.601Z,18.53
2022-10-06T14:15:31.625Z,18.58
2022-10-06T14:18:05.414Z,18.57
2022-10-06T14:20:39.310Z,18.54
2022-10-06T14:23:39.008Z,18.75
2022-10-06T14:26:07.598Z,18.63
2022-10-06T14:28:34.458Z,18.60
2022-10-06T14:31:03.714Z,18.60
2022-10-06T14:33:33.247Z,18.53
2022-10-06T14:36:00.047Z,18.56
2022-10-06T14:38:29.968Z,18.45
2022-10-06T14:40:57.264Z,18.41
2022-10-06T14:43:24.939Z,18.18
2022-10-06T14:45:52.685Z,18.21
2022-10-06T14:48:19.528Z,18.18
2022-10-06T14:50:46.865Z,18.21
2022-10-06T14:53:16.895Z,18.27
2022-10-06T14:55:47.027Z,18.01
2022-10-06T14:58:13.995Z,18.10
2022-10-06T15:00:42.989Z,18.17
2022-10-06T15:03:12.750Z,18.08
2022-10-06T15:05:59.537Z,18.10
2022-10-06T15:08:30.762Z,18.12
2022-10-06T15:10:59.857Z,18.09
2022-10-06T15:13:32.012Z,18.03
2022-10-06T15:15:59.025Z,17.88
2022-10-06T15:18:26.146Z,17.85
2022-10-06T15:20:53.160Z,17.72
2022-10-06T15:23:20.182Z,17.67
2022-10-06T15:26:15.965Z,17.64
2022-10-06T15:29:00.878Z,17.67
2022-10-06T15:31:35.347Z,17.69
2022-10-06T15:34:07.704Z,17.64
2022-10-06T15:36:37.562Z,17.54
2022-10-06T15:39:10.478Z,17.60
2022-10-06T15:41:39.633Z,17.48
2022-10-06T15:44:08.331Z,17.60
2022-10-06T15:46:38.798Z,17.55
2022-10-06T15:49:10.912Z,17.50
2022-10-06T15:51:49.747Z,17.42
2022-10-06T15:54:19.745Z,17.43
2022-10-06T15:56:47.854Z,17.29
2022-10-06T15:59:16.157Z,17.38
2022-10-06T16:01:46.963Z,17.22
2022-10-06T16:04:20.435Z,17.11
2022-10-06T16:06:52.116Z,17.10
2022-10-06T16:09:19.112Z,17.01
2022-10-06T16:11:47.277Z,16.99
2022-10-06T16:14:15.458Z,16.98
2022-10-06T16:16:43.833Z,16.96
2022-10-06T16:19:11.412Z,16.93
2022-10-06T16:21:39.676Z,16.85
2022-10-06T16:24:07.207Z,16.71
2022-10-06T16:26:39.967Z,16.70
2022-10-06T16:29:07.265Z,16.65
2022-10-06T16:31:34.448Z,16.49
2022-10-06T16:34:01.749Z,16.45
2022-10-06T16:36:28.702Z,16.23
2022-10-06T16:38:56.178Z,16.23
2022-10-06T16:41:23.828Z,16.08
2022-10-06T16:43:53.752Z,16.19
2022-10-06T16:46:23.650Z,15.86
2022-10-06T16:48:52.971Z,15.89
2022-10-06T16:51:25.664Z,15.85
2022-10-06T16:54:01.686Z,15.75
2022-10-06T16:56:30.958Z,15.70
2022-10-06T16:59:00.445Z,15.68
2022-10-06T17:01:30.273Z,15.53
2022-10-06T17:04:10.583Z,15.66
2022-10-06T17:06:43.449Z,15.45
2022-10-06T17:09:16.480Z,15.46
2022-10-06T17:11:55.430Z,15.37
2022-10-06T17:14:23.036Z,15.21
2022-10-06T17:16:52.208Z,15.01
2022-10-06T17:19:21.341Z,14.90
2022-10-06T17:21:52.706Z,14.78
2022-10-06T17:24:28.018Z,14.61
2022-10-06T17:27:01.189Z,14.42
2022-10-06T17:29:28.127Z,14.20
2022-10-06T17:32:15.614Z,14.29
2022-10-06T17:34:42.347Z,14.27
2022-10-06T17:37:09.027Z,14.20
2022-10-06T17:39:36.176Z,14.04
2022-10-06T17:42:03.336Z,13.87
2022-10-06T17:44:31.084Z,13.72
2022-10-06T17:47:00.571Z,13.72
2022-10-06T17:49:31.937Z,13.61
2022-10-06T17:51:58.710Z,13.56
2022-10-06T17:54:27.106Z,13.44
2022-10-06T17:56:59.952Z,13.39
2022-10-06T17:59:36.951Z,13.38
2022-10-06T18:02:04.022Z,13.32
2022-10-06T18:04:31.480Z,13.20
2022-10-06T18:07:02.154Z,13.29
2022-10-06T18:09:29.589Z,13.17
2022-10-06T18:11:57.888Z,13.12
2022-10-06T18:14:26.928Z,13.05
2022-10-06T18:17:00.901Z,13.21
2022-10-06T18:19:30.713Z,13.22
2022-10-06T18:22:03.360Z,13.11
2022-10-06T18:24:31.541Z,12.98
2022-10-06T18:27:00.609Z,12.97
2022-10-06T18:29:33.843Z,12.76
2022-10-06T18:32:27.310Z,12.74
2022-10-06T18:37:35.714Z,12.61
2022-10-06T18:40:06.018Z,12.78
2022-10-06T18:42:33.192Z,12.59
2022-10-06T18:45:18.576Z,12.56
2022-10-06T18:48:04.135Z,12.49
2022-10-06T18:50:33.161Z,12.49
2022-10-06T18:52:59.955Z,12.38
2022-10-06T18:55:29.095Z,12.31
2022-10-06T18:57:56.145Z,12.09
2022-10-06T19:00:24.085Z,12.04
2022-10-06T19:02:52.098Z,12.12
2022-10-06T19:05:19.101Z,12.10
2022-10-06T19:07:46.366Z,11.98
2022-10-06T19:10:16.124Z,11.96
2022-10-06T19:12:42.912Z,11.92
2022-10-06T19:15:10.090Z,12.03
2022-10-06T19:17:41.088Z,12.00
2022-10-06T19:20:10.920Z,11.92
2022-10-06T19:22:38.449Z,11.95
2022-10-06T19:25:05.470Z,11.84
2022-10-06T19:27:36.609Z,11.93
2022-10-06T19:30:04.956Z,11.87
2022-10-06T19:32:34.605Z,11.96
2022-10-06T19:35:04.225Z,11.82
2022-10-06T19:37:34.223Z,11.83
2022-10-06T19:40:02.007Z,11.70
2022-10-06T19:42:47.520Z,11.69
2022-10-06T19:45:16.019Z,11.69
2022-10-06T19:47:46.176Z,11.61
2022-10-06T19:50:17.219Z,11.39
2022-10-06T19:52:44.701Z,11.29
2022-10-06T19:55:11.638Z,11.31
2022-10-06T19:57:38.507Z,11.34
2022-10-06T20:00:08.842Z,11.25
2022-10-06T20:02:44.348Z,11.23
2022-10-06T20:05:14.000Z,11.24
2022-10-06T20:07:42.404Z,11.12
2022-10-06T20:10:11.950Z,11.11
2022-10-06T20:12:41.552Z,11.14
2022-10-06T20:15:09.948Z,11.12
2022-10-06T20:17:36.958Z,10.93
2022-10-06T20:20:04.409Z,10.88
2022-10-06T20:22:31.780Z,10.92
2022-10-06T20:24:58.916Z,10.84
2022-10-06T20:27:25.953Z,10.74
2022-10-06T20:29:53.044Z,10.91
2022-10-06T20:32:23.075Z,10.90
2022-10-06T20:34:49.994Z,10.88
2022-10-06T20:37:16.744Z,10.91
2022-10-06T20:40:02.112Z,10.87
2022-10-06T20:42:29.116Z,10.81
2022-10-06T20:44:55.911Z,10.83
2022-10-06T20:47:23.329Z,10.82
2022-10-06T20:49:55.062Z,10.79
2022-10-06T20:52:23.805Z,10.92
2022-10-06T20:54:51.240Z,10.92
2022-10-06T20:57:21.181Z,10.90
2022-10-06T20:59:49.130Z,10.81
2022-10-06T21:02:16.680Z,10.59
2022-10-06T21:04:43.572Z,10.64
2022-10-06T21:07:11.162Z,10.65
2022-10-06T21:09:37.995Z,10.57
2022-10-06T21:12:04.959Z,10.63
2022-10-06T21:14:31.767Z,10.68
2022-10-06T21:16:58.755Z,10.78
2022-10-06T21:19:27.066Z,10.70
2022-10-06T21:21:55.417Z,10.91
2022-10-06T21:24:22.235Z,10.96
2022-10-06T21:26:50.353Z,10.88
2022-10-06T21:29:17.146Z,10.84
2022-10-06T21:31:47.051Z,10.88
2022-10-06T21:34:14.505Z,10.95
2022-10-06T21:36:44.149Z,10.99
2022-10-06T21:39:12.406Z,10.92
2022-10-06T21:41:40.480Z,10.82
2022-10-06T21:44:13.102Z,10.86
2022-10-06T21:46:46.773Z,10.79
2022-10-06T21:49:19.097Z,10.77
2022-10-06T21:51:49.147Z,10.70
2022-10-06T21:54:16.902Z,10.73
2022-10-06T21:56:43.740Z,10.58
2022-10-06T21:59:11.694Z,10.61
2022-10-06T22:01:43.114Z,10.55
2022-10-06T22:04:12.885Z,10.71
2022-10-06T22:06:40.144Z,10.64
2022-10-06T22:09:08.968Z,10.69
2022-10-06T22:11:38.657Z,10.75
2022-10-06T22:14:11.944Z,10.66
2022-10-06T22:16:38.947Z,10.62
2022-10-06T22:19:07.531Z,10.69
2022-10-06T22:21:37.401Z,10.69
2022-10-06T22:24:07.404Z,10.66
2022-10-06T22:26:37.427Z,10.55
2022-10-06T22:29:06.658Z,10.48
2022-10-06T22:31:34.188Z,10.63
2022-10-06T22:34:04.661Z,10.65
2022-10-06T22:36:33.681Z,10.78
2022-10-06T22:39:03.919Z,10.66
2022-10-06T22:41:34.907Z,10.74
2022-10-06T22:44:01.939Z,10.70
2022-10-06T22:46:31.102Z,10.65
2022-10-06T22:49:00.722Z,10.70
2022-10-06T22:51:27.748Z,10.70
2022-10-06T22:53:58.232Z,10.74
2022-10-06T22:56:30.076Z,10.79
2022-10-06T22:58:59.914Z,10.76
2022-10-06T23:01:27.976Z,10.76
2022-10-06T23:03:55.648Z,10.89
2022-10-06T23:06:23.045Z,10.81
2022-10-06T23:08:49.982Z,10.74
2022-10-06T23:11:18.923Z,10.63
2022-10-06T23:13:46.198Z,10.73
2022-10-06T23:16:14.865Z,10.61
2022-10-06T23:18:42.810Z,10.58
2022-10-06T23:21:22.002Z,10.54
2022-10-06T23:23:52.987Z,10.45
2022-10-06T23:26:20.321Z,10.29
2022-10-06T23:28:54.015Z,10.42
2022-10-06T23:31:21.215Z,10.48
2022-10-06T23:33:48.665Z,10.54
2022-10-06T23:36:15.741Z,10.55
2022-10-06T23:38:42.561Z,10.53
2022-10-06T23:41:09.583Z,10.46
2022-10-06T23:43:37.205Z,10.52
2022-10-06T23:46:05.666Z,10.41
2022-10-06T23:48:33.827Z,10.43
2022-10-06T23:51:05.542Z,10.29
2022-10-06T23:53:33.277Z,10.38
2022-10-06T23:56:00.218Z,10.30
2022-10-06T23:58:27.918Z,10.25
